This is the latest recevied weather packets stored in our database for station/object AB0TJ. If no packets are shown the sender has not sent any weather packets the latest 10 day(s).
| Time | Temp. | Humidity | Pressure | Rain* | Wind** | Luminosity | Snow |
|---|---|---|---|---|---|---|---|
| 1778095786 | 12.78° C | 26% | 1017.8 hPa | 0 mm | - | 854 W/m² | - |
| 1778095254 | 12.78° C | 26% | 1018.1 hPa | 0 mm | - | 872 W/m² | - |
| 1778094729 | 12.78° C | 27% | 1017.9 hPa | 0 mm | - | 201 W/m² | - |
| 1778094169 | 12.78° C | 27% | 1018.2 hPa | 0 mm | - | 905 W/m² | - |
| 1778093661 | 12.78° C | 26% | 1018 hPa | 0 mm | - | 893 W/m² | - |
| 1778093159 | 12.22° C | 30% | 1017.9 hPa | 0 mm | - | 890 W/m² | - |
| 1778092614 | 12.78° C | 29% | 1017.9 hPa | 0 mm | - | 175 W/m² | - |
| 1778092019 | 12.78° C | 27% | 1018 hPa | 0 mm | - | 549 W/m² | - |
| 1778091534 | 13.33° C | 28% | 1018 hPa | 0 mm | - | 177 W/m² | - |
| 1778091039 | 13.33° C | 29% | 1018.3 hPa | 0 mm | - | 861 W/m² | - |
| 1778090479 | 12.78° C | 29% | 1018 hPa | 0 mm | - | 807 W/m² | - |
| 1778089964 | 12.22° C | 29% | 1018.2 hPa | 0 mm | - | 783 W/m² | - |
| 1778089429 | 12.22° C | 30% | 1018.1 hPa | 0 mm | - | 772 W/m² | - |
| 1778088949 | 12.22° C | 31% | 1017.9 hPa | 0 mm | - | 289 W/m² | - |
| 1778088418 | 11.67° C | 33% | 1017.8 hPa | 0 mm | - | 256 W/m² | - |
| 1778087929 | 12.22° C | 32% | 1017.6 hPa | 0 mm | - | 457 W/m² | - |
| 1778087392 | 12.22° C | 31% | 1017.4 hPa | 0 mm | - | 543 W/m² | - |
| 1778086824 | 12.22° C | 29% | 1017.3 hPa | 0 mm | - | 706 W/m² | - |
| 1778086269 | 11.67° C | 33% | 1017.1 hPa | 0 mm | - | 664 W/m² | - |
| 1778085732 | 11.67° C | 33% | 1017 hPa | 0 mm | - | 656 W/m² | - |
| 1778085149 | 11.11° C | 37% | 1016.9 hPa | 0 mm | - | 642 W/m² | - |
| 1778084589 | 11.11° C | 40% | 1016.7 hPa | 0 mm | - | 590 W/m² | - |
| 1778084058 | 10.56° C | 43% | 1016.6 hPa | 0 mm | - | 570 W/m² | - |
| 1778083513 | 10.56° C | 42% | 1016.9 hPa | 0 mm | - | 540 W/m² | - |
| 1778083018 | 10.56° C | 44% | 1016.8 hPa | 0 mm | - | 518 W/m² | - |
* Rain latest hour (hover to see other rain measurements)
** Current wind speed in m/s (hover to see current wind gust speed)